sensor_id;sensor_type;location;lat;lon;timestamp;P1;durP1;ratioP1;P2;durP2;ratioP2
17261;SDS011;9873;52.236;21.002;2023-08-20T00:08:10;17.65;;;15.30;;
17261;SDS011;9873;52.236;21.002;2023-08-20T00:18:19;18.50;;;16.58;;
17261;SDS011;9873;52.236;21.002;2023-08-20T00:28:25;17.27;;;15.63;;
17261;SDS011;9873;52.236;21.002;2023-08-20T00:38:31;19.92;;;16.20;;
17261;SDS011;9873;52.236;21.002;2023-08-20T00:48:36;18.15;;;16.25;;
17261;SDS011;9873;52.236;21.002;2023-08-20T00:58:42;18.20;;;16.50;;
17261;SDS011;9873;52.236;21.002;2023-08-20T01:08:47;17.80;;;16.10;;
17261;SDS011;9873;52.236;21.002;2023-08-20T01:19:00;18.58;;;16.67;;
17261;SDS011;9873;52.236;21.002;2023-08-20T01:29:04;19.75;;;17.60;;
17261;SDS011;9873;52.236;21.002;2023-08-20T01:39:09;21.00;;;18.90;;
17261;SDS011;9873;52.236;21.002;2023-08-20T01:49:11;23.05;;;20.75;;
17261;SDS011;9873;52.236;21.002;2023-08-20T01:59:16;19.90;;;17.90;;
17261;SDS011;9873;52.236;21.002;2023-08-20T02:09:25;22.60;;;18.60;;
17261;SDS011;9873;52.236;21.002;2023-08-20T02:19:30;20.88;;;18.67;;
17261;SDS011;9873;52.236;21.002;2023-08-20T02:29:32;20.33;;;18.23;;
17261;SDS011;9873;52.236;21.002;2023-08-20T02:39:39;21.27;;;19.00;;
17261;SDS011;9873;52.236;21.002;2023-08-20T02:49:52;21.52;;;18.60;;
17261;SDS011;9873;52.236;21.002;2023-08-20T03:00:05;20.25;;;18.02;;
17261;SDS011;9873;52.236;21.002;2023-08-20T03:10:14;23.58;;;19.27;;
17261;SDS011;9873;52.236;21.002;2023-08-20T03:20:21;22.92;;;20.45;;
17261;SDS011;9873;52.236;21.002;2023-08-20T03:30:26;21.65;;;19.42;;
17261;SDS011;9873;52.236;21.002;2023-08-20T03:40:29;21.95;;;18.75;;
17261;SDS011;9873;52.236;21.002;2023-08-20T03:50:33;20.17;;;18.08;;
17261;SDS011;9873;52.236;21.002;2023-08-20T04:00:38;19.35;;;17.27;;
17261;SDS011;9873;52.236;21.002;2023-08-20T04:10:43;18.15;;;16.33;;
17261;SDS011;9873;52.236;21.002;2023-08-20T04:20:50;18.17;;;16.30;;
17261;SDS011;9873;52.236;21.002;2023-08-20T04:30:58;20.08;;;15.95;;
17261;SDS011;9873;52.236;21.002;2023-08-20T04:41:15;17.20;;;15.57;;
17261;SDS011;9873;52.236;21.002;2023-08-20T04:51:18;17.77;;;14.32;;
17261;SDS011;9873;52.236;21.002;2023-08-20T05:01:20;17.33;;;15.50;;
17261;SDS011;9873;52.236;21.002;2023-08-20T05:11:25;19.10;;;17.10;;
17261;SDS011;9873;52.236;21.002;2023-08-20T05:21:31;21.55;;;16.50;;
17261;SDS011;9873;52.236;21.002;2023-08-20T05:31:37;18.17;;;16.20;;
17261;SDS011;9873;52.236;21.002;2023-08-20T05:41:48;16.17;;;14.13;;
17261;SDS011;9873;52.236;21.002;2023-08-20T05:51:53;18.98;;;15.98;;
17261;SDS011;9873;52.236;21.002;2023-08-20T06:01:56;15.50;;;13.80;;
17261;SDS011;9873;52.236;21.002;2023-08-20T06:12:07;12.95;;;11.75;;
17261;SDS011;9873;52.236;21.002;2023-08-20T06:22:12;12.00;;;10.70;;
17261;SDS011;9873;52.236;21.002;2023-08-20T06:32:16;12.15;;;11.15;;
17261;SDS011;9873;52.236;21.002;2023-08-20T06:42:21;12.93;;;11.43;;
17261;SDS011;9873;52.236;21.002;2023-08-20T06:52:26;12.77;;;11.50;;
17261;SDS011;9873;52.236;21.002;2023-08-20T07:02:30;12.68;;;11.57;;
17261;SDS011;9873;52.236;21.002;2023-08-20T07:12:33;14.32;;;13.00;;
17261;SDS011;9873;52.236;21.002;2023-08-20T07:22:40;13.13;;;11.40;;
17261;SDS011;9873;52.236;21.002;2023-08-20T07:32:44;13.18;;;11.88;;
17261;SDS011;9873;52.236;21.002;2023-08-20T07:42:52;12.75;;;11.63;;
17261;SDS011;9873;52.236;21.002;2023-08-20T07:53:02;12.68;;;11.45;;
17261;SDS011;9873;52.236;21.002;2023-08-20T08:03:06;13.88;;;12.40;;
17261;SDS011;9873;52.236;21.002;2023-08-20T08:13:15;13.18;;;11.30;;
17261;SDS011;9873;52.236;21.002;2023-08-20T08:23:23;13.02;;;11.70;;
17261;SDS011;9873;52.236;21.002;2023-08-20T08:33:26;11.10;;;10.00;;
17261;SDS011;9873;52.236;21.002;2023-08-20T08:43:31;10.25;;;9.23;;
17261;SDS011;9873;52.236;21.002;2023-08-20T08:53:38;10.63;;;9.63;;
17261;SDS011;9873;52.236;21.002;2023-08-20T09:03:43;10.07;;;9.18;;
17261;SDS011;9873;52.236;21.002;2023-08-20T09:13:45;9.68;;;8.73;;
17261;SDS011;9873;52.236;21.002;2023-08-20T09:23:48;9.25;;;8.35;;
17261;SDS011;9873;52.236;21.002;2023-08-20T09:33:53;9.90;;;9.00;;
17261;SDS011;9873;52.236;21.002;2023-08-20T09:44:01;9.05;;;8.25;;
17261;SDS011;9873;52.236;21.002;2023-08-20T10:04:11;9.10;;;8.32;;
17261;SDS011;9873;52.236;21.002;2023-08-20T10:14:14;10.25;;;8.90;;
17261;SDS011;9873;52.236;21.002;2023-08-20T10:24:17;9.80;;;8.90;;
17261;SDS011;9873;52.236;21.002;2023-08-20T10:34:34;13.35;;;9.75;;
17261;SDS011;9873;52.236;21.002;2023-08-20T10:55:06;10.65;;;9.68;;
17261;SDS011;9873;52.236;21.002;2023-08-20T11:05:18;9.90;;;9.10;;
17261;SDS011;9873;52.236;21.002;2023-08-20T11:15:23;10.30;;;9.38;;
17261;SDS011;9873;52.236;21.002;2023-08-20T11:25:30;10.75;;;9.75;;
17261;SDS011;9873;52.236;21.002;2023-08-20T11:35:38;10.60;;;9.60;;
17261;SDS011;9873;52.236;21.002;2023-08-20T11:45:44;10.93;;;9.90;;
17261;SDS011;9873;52.236;21.002;2023-08-20T11:55:48;11.77;;;10.65;;
17261;SDS011;9873;52.236;21.002;2023-08-20T12:05:55;11.18;;;10.15;;
17261;SDS011;9873;52.236;21.002;2023-08-20T12:15:58;11.23;;;9.98;;
17261;SDS011;9873;52.236;21.002;2023-08-20T12:26:00;13.10;;;11.90;;
17261;SDS011;9873;52.236;21.002;2023-08-20T12:36:07;11.65;;;10.55;;
17261;SDS011;9873;52.236;21.002;2023-08-20T12:46:10;12.40;;;11.20;;
17261;SDS011;9873;52.236;21.002;2023-08-20T12:56:17;11.10;;;10.10;;
17261;SDS011;9873;52.236;21.002;2023-08-20T13:06:24;11.25;;;10.25;;
17261;SDS011;9873;52.236;21.002;2023-08-20T13:16:30;8.90;;;8.13;;
17261;SDS011;9873;52.236;21.002;2023-08-20T13:26:33;9.80;;;9.00;;
17261;SDS011;9873;52.236;21.002;2023-08-20T13:36:44;11.18;;;10.13;;
17261;SDS011;9873;52.236;21.002;2023-08-20T13:46:51;10.80;;;9.90;;
17261;SDS011;9873;52.236;21.002;2023-08-20T13:56:56;10.23;;;9.25;;
17261;SDS011;9873;52.236;21.002;2023-08-20T14:07:03;10.60;;;9.70;;
17261;SDS011;9873;52.236;21.002;2023-08-20T14:17:09;11.88;;;10.43;;
17261;SDS011;9873;52.236;21.002;2023-08-20T14:27:13;12.25;;;11.18;;
17261;SDS011;9873;52.236;21.002;2023-08-20T14:37:16;12.02;;;10.82;;
17261;SDS011;9873;52.236;21.002;2023-08-20T14:47:23;11.50;;;10.38;;
17261;SDS011;9873;52.236;21.002;2023-08-20T14:57:28;11.25;;;10.30;;
17261;SDS011;9873;52.236;21.002;2023-08-20T15:07:53;10.88;;;9.88;;
17261;SDS011;9873;52.236;21.002;2023-08-20T15:18:01;10.85;;;9.85;;
17261;SDS011;9873;52.236;21.002;2023-08-20T15:28:04;11.00;;;10.00;;
17261;SDS011;9873;52.236;21.002;2023-08-20T15:38:08;9.10;;;8.30;;
17261;SDS011;9873;52.236;21.002;2023-08-20T15:48:13;10.70;;;9.68;;
17261;SDS011;9873;52.236;21.002;2023-08-20T15:58:19;10.43;;;9.50;;
17261;SDS011;9873;52.236;21.002;2023-08-20T16:08:26;10.60;;;9.60;;
17261;SDS011;9873;52.236;21.002;2023-08-20T16:18:32;10.63;;;9.57;;
17261;SDS011;9873;52.236;21.002;2023-08-20T16:28:40;10.32;;;9.23;;
17261;SDS011;9873;52.236;21.002;2023-08-20T16:38:49;9.85;;;8.85;;
17261;SDS011;9873;52.236;21.002;2023-08-20T16:48:57;10.55;;;9.55;;
17261;SDS011;9873;52.236;21.002;2023-08-20T16:58:59;10.15;;;9.20;;
17261;SDS011;9873;52.236;21.002;2023-08-20T17:09:02;13.38;;;9.68;;
17261;SDS011;9873;52.236;21.002;2023-08-20T17:19:11;10.13;;;9.00;;
17261;SDS011;9873;52.236;21.002;2023-08-20T17:29:19;10.90;;;9.43;;
17261;SDS011;9873;52.236;21.002;2023-08-20T17:39:24;14.45;;;9.98;;
17261;SDS011;9873;52.236;21.002;2023-08-20T17:49:30;11.18;;;10.07;;
17261;SDS011;9873;52.236;21.002;2023-08-20T17:59:35;11.35;;;10.23;;
17261;SDS011;9873;52.236;21.002;2023-08-20T18:09:39;10.80;;;9.55;;
17261;SDS011;9873;52.236;21.002;2023-08-20T18:19:49;11.82;;;10.25;;
17261;SDS011;9873;52.236;21.002;2023-08-20T18:29:52;14.52;;;13.02;;
17261;SDS011;9873;52.236;21.002;2023-08-20T18:39:56;11.55;;;10.45;;
17261;SDS011;9873;52.236;21.002;2023-08-20T18:50:04;11.80;;;10.25;;
17261;SDS011;9873;52.236;21.002;2023-08-20T19:00:07;11.32;;;9.75;;
17261;SDS011;9873;52.236;21.002;2023-08-20T19:10:16;11.98;;;10.77;;
17261;SDS011;9873;52.236;21.002;2023-08-20T19:20:20;11.75;;;10.75;;
17261;SDS011;9873;52.236;21.002;2023-08-20T19:30:25;12.15;;;10.73;;
17261;SDS011;9873;52.236;21.002;2023-08-20T19:40:41;14.23;;;12.18;;
17261;SDS011;9873;52.236;21.002;2023-08-20T20:01:49;12.68;;;11.43;;
17261;SDS011;9873;52.236;21.002;2023-08-20T20:22:05;12.93;;;11.73;;
17261;SDS011;9873;52.236;21.002;2023-08-20T20:32:09;11.55;;;10.35;;
17261;SDS011;9873;52.236;21.002;2023-08-20T20:42:14;11.80;;;10.52;;
17261;SDS011;9873;52.236;21.002;2023-08-20T20:52:21;11.98;;;10.60;;
17261;SDS011;9873;52.236;21.002;2023-08-20T21:02:23;11.68;;;10.68;;
17261;SDS011;9873;52.236;21.002;2023-08-20T21:12:28;12.10;;;10.77;;
17261;SDS011;9873;52.236;21.002;2023-08-20T21:22:36;12.68;;;11.48;;
17261;SDS011;9873;52.236;21.002;2023-08-20T21:32:41;11.95;;;10.85;;
17261;SDS011;9873;52.236;21.002;2023-08-20T21:42:46;11.95;;;10.73;;
17261;SDS011;9873;52.236;21.002;2023-08-20T21:52:51;13.23;;;11.98;;
17261;SDS011;9873;52.236;21.002;2023-08-20T22:02:56;14.55;;;13.23;;
17261;SDS011;9873;52.236;21.002;2023-08-20T22:12:58;14.10;;;12.45;;
17261;SDS011;9873;52.236;21.002;2023-08-20T22:23:06;12.80;;;11.32;;
17261;SDS011;9873;52.236;21.002;2023-08-20T22:33:08;13.18;;;11.88;;
17261;SDS011;9873;52.236;21.002;2023-08-20T22:43:11;13.02;;;11.63;;
17261;SDS011;9873;52.236;21.002;2023-08-20T22:53:14;13.48;;;11.55;;
17261;SDS011;9873;52.236;21.002;2023-08-20T23:03:16;13.50;;;11.70;;
17261;SDS011;9873;52.236;21.002;2023-08-20T23:13:23;12.88;;;11.32;;
17261;SDS011;9873;52.236;21.002;2023-08-20T23:23:27;13.13;;;11.85;;
17261;SDS011;9873;52.236;21.002;2023-08-20T23:33:29;14.55;;;12.45;;
17261;SDS011;9873;52.236;21.002;2023-08-20T23:43:34;13.32;;;11.93;;
17261;SDS011;9873;52.236;21.002;2023-08-20T23:53:39;13.20;;;11.80;;
